sensor_id;sensor_type;location;lat;lon;timestamp;P1;durP1;ratioP1;P2;durP2;ratioP2
22673;SDS011;11504;43.334;21.918;2023-04-16T00:02:06;13.0;;;12.0;;
22673;SDS011;11504;43.334;21.918;2023-04-16T00:06:42;12.0;;;10.0;;
22673;SDS011;11504;43.334;21.918;2023-04-16T00:11:19;12.0;;;10.0;;
22673;SDS011;11504;43.334;21.918;2023-04-16T00:15:57;12.0;;;10.0;;
22673;SDS011;11504;43.334;21.918;2023-04-16T00:20:34;12.0;;;10.0;;
22673;SDS011;11504;43.334;21.918;2023-04-16T00:25:12;11.0;;;10.0;;
22673;SDS011;11504;43.334;21.918;2023-04-16T00:29:50;11.0;;;10.0;;
22673;SDS011;11504;43.334;21.918;2023-04-16T00:34:27;12.0;;;10.0;;
22673;SDS011;11504;43.334;21.918;2023-04-16T00:39:03;12.0;;;10.0;;
22673;SDS011;11504;43.334;21.918;2023-04-16T00:43:40;12.0;;;10.0;;
22673;SDS011;11504;43.334;21.918;2023-04-16T00:48:17;12.0;;;10.0;;
22673;SDS011;11504;43.334;21.918;2023-04-16T00:52:56;11.0;;;10.0;;
22673;SDS011;11504;43.334;21.918;2023-04-16T00:57:33;11.0;;;10.0;;
22673;SDS011;11504;43.334;21.918;2023-04-16T01:02:10;11.0;;;10.0;;
22673;SDS011;11504;43.334;21.918;2023-04-16T01:06:47;10.0;;;9.0;;
22673;SDS011;11504;43.334;21.918;2023-04-16T01:11:24;10.0;;;9.0;;
22673;SDS011;11504;43.334;21.918;2023-04-16T01:16:01;10.0;;;8.0;;
22673;SDS011;11504;43.334;21.918;2023-04-16T01:20:39;10.0;;;8.0;;
22673;SDS011;11504;43.334;21.918;2023-04-16T01:25:17;9.0;;;8.0;;
22673;SDS011;11504;43.334;21.918;2023-04-16T01:29:54;9.0;;;8.0;;
22673;SDS011;11504;43.334;21.918;2023-04-16T01:34:30;8.0;;;8.0;;
22673;SDS011;11504;43.334;21.918;2023-04-16T01:39:07;8.0;;;8.0;;
22673;SDS011;11504;43.334;21.918;2023-04-16T01:43:44;8.0;;;7.0;;
22673;SDS011;11504;43.334;21.918;2023-04-16T01:48:20;8.0;;;7.0;;
22673;SDS011;11504;43.334;21.918;2023-04-16T01:52:57;12.0;;;10.0;;
22673;SDS011;11504;43.334;21.918;2023-04-16T01:57:33;12.0;;;10.0;;
22673;SDS011;11504;43.334;21.918;2023-04-16T02:02:11;12.0;;;10.0;;
22673;SDS011;11504;43.334;21.918;2023-04-16T02:06:51;15.0;;;14.0;;
22673;SDS011;11504;43.334;21.918;2023-04-16T02:11:27;15.0;;;14.0;;
22673;SDS011;11504;43.334;21.918;2023-04-16T02:16:04;15.0;;;13.0;;
22673;SDS011;11504;43.334;21.918;2023-04-16T02:20:41;15.0;;;13.0;;
22673;SDS011;11504;43.334;21.918;2023-04-16T02:25:22;15.0;;;12.0;;
22673;SDS011;11504;43.334;21.918;2023-04-16T02:29:59;15.0;;;12.0;;
22673;SDS011;11504;43.334;21.918;2023-04-16T02:34:35;12.0;;;10.0;;
22673;SDS011;11504;43.334;21.918;2023-04-16T02:39:12;12.0;;;10.0;;
22673;SDS011;11504;43.334;21.918;2023-04-16T02:43:48;9.0;;;8.0;;
22673;SDS011;11504;43.334;21.918;2023-04-16T02:48:25;9.0;;;8.0;;
22673;SDS011;11504;43.334;21.918;2023-04-16T02:53:02;12.0;;;11.0;;
22673;SDS011;11504;43.334;21.918;2023-04-16T02:57:39;12.0;;;11.0;;
22673;SDS011;11504;43.334;21.918;2023-04-16T03:02:16;12.0;;;11.0;;
22673;SDS011;11504;43.334;21.918;2023-04-16T03:06:54;15.0;;;14.0;;
22673;SDS011;11504;43.334;21.918;2023-04-16T03:11:31;15.0;;;14.0;;
22673;SDS011;11504;43.334;21.918;2023-04-16T03:16:07;18.0;;;16.0;;
22673;SDS011;11504;43.334;21.918;2023-04-16T03:20:44;18.0;;;16.0;;
22673;SDS011;11504;43.334;21.918;2023-04-16T03:25:26;20.0;;;19.0;;
22673;SDS011;11504;43.334;21.918;2023-04-16T03:30:03;20.0;;;19.0;;
22673;SDS011;11504;43.334;21.918;2023-04-16T03:34:48;18.0;;;16.0;;
22673;SDS011;11504;43.334;21.918;2023-04-16T03:39:25;18.0;;;16.0;;
22673;SDS011;11504;43.334;21.918;2023-04-16T03:44:01;15.0;;;14.0;;
22673;SDS011;11504;43.334;21.918;2023-04-16T03:48:39;15.0;;;14.0;;
22673;SDS011;11504;43.334;21.918;2023-04-16T03:53:16;16.0;;;15.0;;
22673;SDS011;11504;43.334;21.918;2023-04-16T03:57:52;16.0;;;15.0;;
22673;SDS011;11504;43.334;21.918;2023-04-16T04:02:29;16.0;;;15.0;;
22673;SDS011;11504;43.334;21.918;2023-04-16T04:07:05;17.0;;;16.0;;
22673;SDS011;11504;43.334;21.918;2023-04-16T04:11:42;17.0;;;16.0;;
22673;SDS011;11504;43.334;21.918;2023-04-16T04:16:18;14.0;;;14.0;;
22673;SDS011;11504;43.334;21.918;2023-04-16T04:20:55;14.0;;;14.0;;
22673;SDS011;11504;43.334;21.918;2023-04-16T04:25:32;12.0;;;11.0;;
22673;SDS011;11504;43.334;21.918;2023-04-16T04:30:10;12.0;;;11.0;;
22673;SDS011;11504;43.334;21.918;2023-04-16T04:34:47;10.0;;;9.0;;
22673;SDS011;11504;43.334;21.918;2023-04-16T04:39:23;10.0;;;9.0;;
22673;SDS011;11504;43.334;21.918;2023-04-16T04:43:59;8.0;;;7.0;;
22673;SDS011;11504;43.334;21.918;2023-04-16T04:48:35;8.0;;;7.0;;
22673;SDS011;11504;43.334;21.918;2023-04-16T04:53:12;8.0;;;7.0;;
22673;SDS011;11504;43.334;21.918;2023-04-16T04:57:48;8.0;;;7.0;;
22673;SDS011;11504;43.334;21.918;2023-04-16T05:02:25;8.0;;;7.0;;
22673;SDS011;11504;43.334;21.918;2023-04-16T05:07:01;9.0;;;7.0;;
22673;SDS011;11504;43.334;21.918;2023-04-16T05:11:39;9.0;;;7.0;;
22673;SDS011;11504;43.334;21.918;2023-04-16T05:16:17;10.0;;;8.0;;
22673;SDS011;11504;43.334;21.918;2023-04-16T05:20:54;10.0;;;8.0;;
22673;SDS011;11504;43.334;21.918;2023-04-16T05:25:31;10.0;;;10.0;;
22673;SDS011;11504;43.334;21.918;2023-04-16T05:30:09;10.0;;;10.0;;
22673;SDS011;11504;43.334;21.918;2023-04-16T05:34:48;12.0;;;10.0;;
22673;SDS011;11504;43.334;21.918;2023-04-16T05:39:25;12.0;;;10.0;;
22673;SDS011;11504;43.334;21.918;2023-04-16T05:44:02;13.0;;;11.0;;
22673;SDS011;11504;43.334;21.918;2023-04-16T05:48:39;13.0;;;11.0;;
22673;SDS011;11504;43.334;21.918;2023-04-16T05:53:16;14.0;;;12.0;;
22673;SDS011;11504;43.334;21.918;2023-04-16T05:57:53;14.0;;;12.0;;
22673;SDS011;11504;43.334;21.918;2023-04-16T06:02:30;14.0;;;12.0;;
22673;SDS011;11504;43.334;21.918;2023-04-16T06:07:06;15.0;;;12.0;;
22673;SDS011;11504;43.334;21.918;2023-04-16T06:11:43;15.0;;;12.0;;
22673;SDS011;11504;43.334;21.918;2023-04-16T06:16:20;16.0;;;14.0;;
22673;SDS011;11504;43.334;21.918;2023-04-16T06:20:57;16.0;;;14.0;;
22673;SDS011;11504;43.334;21.918;2023-04-16T06:25:34;17.0;;;15.0;;
22673;SDS011;11504;43.334;21.918;2023-04-16T06:30:11;17.0;;;15.0;;
22673;SDS011;11504;43.334;21.918;2023-04-16T06:34:51;18.0;;;16.0;;
22673;SDS011;11504;43.334;21.918;2023-04-16T06:39:28;18.0;;;16.0;;
22673;SDS011;11504;43.334;21.918;2023-04-16T06:44:05;20.0;;;18.0;;
22673;SDS011;11504;43.334;21.918;2023-04-16T06:48:42;20.0;;;18.0;;
22673;SDS011;11504;43.334;21.918;2023-04-16T06:53:18;18.0;;;16.0;;
22673;SDS011;11504;43.334;21.918;2023-04-16T06:57:55;18.0;;;16.0;;
22673;SDS011;11504;43.334;21.918;2023-04-16T07:02:32;18.0;;;16.0;;
22673;SDS011;11504;43.334;21.918;2023-04-16T07:07:08;15.0;;;14.0;;
22673;SDS011;11504;43.334;21.918;2023-04-16T07:11:45;15.0;;;14.0;;
22673;SDS011;11504;43.334;21.918;2023-04-16T07:16:22;12.0;;;12.0;;
22673;SDS011;11504;43.334;21.918;2023-04-16T07:20:58;12.0;;;12.0;;
22673;SDS011;11504;43.334;21.918;2023-04-16T07:25:34;10.0;;;9.0;;
22673;SDS011;11504;43.334;21.918;2023-04-16T07:30:11;10.0;;;9.0;;
22673;SDS011;11504;43.334;21.918;2023-04-16T07:34:47;10.0;;;10.0;;
22673;SDS011;11504;43.334;21.918;2023-04-16T07:39:23;10.0;;;10.0;;
22673;SDS011;11504;43.334;21.918;2023-04-16T07:44:00;11.0;;;11.0;;
22673;SDS011;11504;43.334;21.918;2023-04-16T07:48:37;11.0;;;11.0;;
22673;SDS011;11504;43.334;21.918;2023-04-16T07:53:14;12.0;;;10.0;;
22673;SDS011;11504;43.334;21.918;2023-04-16T07:57:50;12.0;;;10.0;;
22673;SDS011;11504;43.334;21.918;2023-04-16T08:02:27;12.0;;;10.0;;
22673;SDS011;11504;43.334;21.918;2023-04-16T08:07:05;13.0;;;10.0;;
22673;SDS011;11504;43.334;21.918;2023-04-16T08:11:42;13.0;;;10.0;;
22673;SDS011;11504;43.334;21.918;2023-04-16T08:16:19;10.0;;;8.0;;
22673;SDS011;11504;43.334;21.918;2023-04-16T08:20:56;10.0;;;8.0;;
22673;SDS011;11504;43.334;21.918;2023-04-16T08:25:33;8.0;;;7.0;;
22673;SDS011;11504;43.334;21.918;2023-04-16T08:30:11;8.0;;;7.0;;
22673;SDS011;11504;43.334;21.918;2023-04-16T08:34:48;8.0;;;7.0;;
22673;SDS011;11504;43.334;21.918;2023-04-16T08:39:25;8.0;;;7.0;;
22673;SDS011;11504;43.334;21.918;2023-04-16T08:44:04;7.0;;;7.0;;
22673;SDS011;11504;43.334;21.918;2023-04-16T08:49:06;7.0;;;7.0;;
22673;SDS011;11504;43.334;21.918;2023-04-16T08:53:52;6.0;;;6.0;;
22673;SDS011;11504;43.334;21.918;2023-04-16T08:59:06;6.0;;;6.0;;
22673;SDS011;11504;43.334;21.918;2023-04-16T09:03:46;6.0;;;5.0;;
22673;SDS011;11504;43.334;21.918;2023-04-16T09:08:24;6.0;;;5.0;;
22673;SDS011;11504;43.334;21.918;2023-04-16T09:13:05;6.0;;;5.0;;
22673;SDS011;11504;43.334;21.918;2023-04-16T09:17:41;6.0;;;5.0;;
22673;SDS011;11504;43.334;21.918;2023-04-16T09:22:18;6.0;;;5.0;;
22673;SDS011;11504;43.334;21.918;2023-04-16T09:26:55;5.0;;;5.0;;
22673;SDS011;11504;43.334;21.918;2023-04-16T09:31:35;5.0;;;5.0;;
22673;SDS011;11504;43.334;21.918;2023-04-16T09:36:12;6.0;;;6.0;;
22673;SDS011;11504;43.334;21.918;2023-04-16T09:41:04;6.0;;;6.0;;
22673;SDS011;11504;43.334;21.918;2023-04-16T09:45:46;7.0;;;7.0;;
22673;SDS011;11504;43.334;21.918;2023-04-16T09:50:26;7.0;;;7.0;;
22673;SDS011;11504;43.334;21.918;2023-04-16T09:55:03;6.0;;;6.0;;
22673;SDS011;11504;43.334;21.918;2023-04-16T09:59:41;6.0;;;6.0;;
22673;SDS011;11504;43.334;21.918;2023-04-16T10:04:18;6.0;;;5.0;;
22673;SDS011;11504;43.334;21.918;2023-04-16T10:08:54;6.0;;;5.0;;
22673;SDS011;11504;43.334;21.918;2023-04-16T10:13:35;6.0;;;5.0;;
22673;SDS011;11504;43.334;21.918;2023-04-16T10:18:12;6.0;;;5.0;;
22673;SDS011;11504;43.334;21.918;2023-04-16T10:22:51;6.0;;;5.0;;
22673;SDS011;11504;43.334;21.918;2023-04-16T10:27:31;7.0;;;5.0;;
22673;SDS011;11504;43.334;21.918;2023-04-16T10:32:11;7.0;;;5.0;;
22673;SDS011;11504;43.334;21.918;2023-04-16T10:36:54;6.0;;;6.0;;
22673;SDS011;11504;43.334;21.918;2023-04-16T10:41:31;6.0;;;6.0;;
22673;SDS011;11504;43.334;21.918;2023-04-16T10:46:24;6.0;;;6.0;;
22673;SDS011;11504;43.334;21.918;2023-04-16T10:51:22;6.0;;;6.0;;
22673;SDS011;11504;43.334;21.918;2023-04-16T10:56:10;6.0;;;6.0;;
22673;SDS011;11504;43.334;21.918;2023-04-16T11:00:48;6.0;;;6.0;;
22673;SDS011;11504;43.334;21.918;2023-04-16T11:05:35;6.0;;;5.0;;
22673;SDS011;11504;43.334;21.918;2023-04-16T11:10:21;6.0;;;5.0;;
22673;SDS011;11504;43.334;21.918;2023-04-16T11:14:59;6.0;;;5.0;;
22673;SDS011;11504;43.334;21.918;2023-04-16T11:19:46;6.0;;;5.0;;
22673;SDS011;11504;43.334;21.918;2023-04-16T11:24:28;7.0;;;5.0;;
22673;SDS011;11504;43.334;21.918;2023-04-16T11:29:12;7.0;;;5.0;;
22673;SDS011;11504;43.334;21.918;2023-04-16T11:33:50;6.0;;;5.0;;
22673;SDS011;11504;43.334;21.918;2023-04-16T11:38:34;6.0;;;5.0;;
22673;SDS011;11504;43.334;21.918;2023-04-16T11:43:14;6.0;;;5.0;;
22673;SDS011;11504;43.334;21.918;2023-04-16T11:47:52;6.0;;;5.0;;
22673;SDS011;11504;43.334;21.918;2023-04-16T11:52:30;6.0;;;5.0;;
22673;SDS011;11504;43.334;21.918;2023-04-16T11:57:09;6.0;;;4.0;;
22673;SDS011;11504;43.334;21.918;2023-04-16T12:01:46;6.0;;;4.0;;
22673;SDS011;11504;43.334;21.918;2023-04-16T12:06:29;5.0;;;4.0;;
22673;SDS011;11504;43.334;21.918;2023-04-16T12:11:06;5.0;;;4.0;;
22673;SDS011;11504;43.334;21.918;2023-04-16T12:15:43;6.0;;;6.0;;
22673;SDS011;11504;43.334;21.918;2023-04-16T12:20:26;6.0;;;6.0;;
22673;SDS011;11504;43.334;21.918;2023-04-16T12:25:18;8.0;;;7.0;;
22673;SDS011;11504;43.334;21.918;2023-04-16T12:30:02;8.0;;;7.0;;
22673;SDS011;11504;43.334;21.918;2023-04-16T12:34:48;8.0;;;6.0;;
22673;SDS011;11504;43.334;21.918;2023-04-16T12:39:25;8.0;;;6.0;;
22673;SDS011;11504;43.334;21.918;2023-04-16T12:44:02;7.0;;;5.0;;
22673;SDS011;11504;43.334;21.918;2023-04-16T12:48:45;7.0;;;5.0;;
22673;SDS011;11504;43.334;21.918;2023-04-16T12:53:21;6.0;;;5.0;;
22673;SDS011;11504;43.334;21.918;2023-04-16T12:57:58;6.0;;;5.0;;
22673;SDS011;11504;43.334;21.918;2023-04-16T13:02:34;6.0;;;5.0;;
22673;SDS011;11504;43.334;21.918;2023-04-16T13:07:11;5.0;;;5.0;;
22673;SDS011;11504;43.334;21.918;2023-04-16T13:11:47;5.0;;;5.0;;
22673;SDS011;11504;43.334;21.918;2023-04-16T13:16:24;6.0;;;5.0;;
22673;SDS011;11504;43.334;21.918;2023-04-16T13:21:00;6.0;;;5.0;;
22673;SDS011;11504;43.334;21.918;2023-04-16T13:25:37;6.0;;;5.0;;
22673;SDS011;11504;43.334;21.918;2023-04-16T13:30:14;6.0;;;5.0;;
22673;SDS011;11504;43.334;21.918;2023-04-16T13:34:52;6.0;;;5.0;;
22673;SDS011;11504;43.334;21.918;2023-04-16T13:39:29;6.0;;;5.0;;
22673;SDS011;11504;43.334;21.918;2023-04-16T13:44:06;6.0;;;5.0;;
22673;SDS011;11504;43.334;21.918;2023-04-16T13:48:43;6.0;;;5.0;;
22673;SDS011;11504;43.334;21.918;2023-04-16T13:53:20;6.0;;;6.0;;
22673;SDS011;11504;43.334;21.918;2023-04-16T13:57:57;6.0;;;6.0;;
22673;SDS011;11504;43.334;21.918;2023-04-16T14:02:34;6.0;;;6.0;;
22673;SDS011;11504;43.334;21.918;2023-04-16T14:07:12;6.0;;;6.0;;
22673;SDS011;11504;43.334;21.918;2023-04-16T14:11:50;6.0;;;6.0;;
22673;SDS011;11504;43.334;21.918;2023-04-16T14:16:27;6.0;;;6.0;;
22673;SDS011;11504;43.334;21.918;2023-04-16T14:21:04;6.0;;;6.0;;
22673;SDS011;11504;43.334;21.918;2023-04-16T14:25:40;6.0;;;5.0;;
22673;SDS011;11504;43.334;21.918;2023-04-16T14:30:17;6.0;;;5.0;;
22673;SDS011;11504;43.334;21.918;2023-04-16T14:34:54;8.0;;;7.0;;
22673;SDS011;11504;43.334;21.918;2023-04-16T14:39:31;8.0;;;7.0;;
22673;SDS011;11504;43.334;21.918;2023-04-16T14:44:09;10.0;;;9.0;;
22673;SDS011;11504;43.334;21.918;2023-04-16T14:48:45;10.0;;;9.0;;
22673;SDS011;11504;43.334;21.918;2023-04-16T14:53:22;8.0;;;8.0;;
22673;SDS011;11504;43.334;21.918;2023-04-16T14:57:59;8.0;;;8.0;;
22673;SDS011;11504;43.334;21.918;2023-04-16T15:02:36;8.0;;;8.0;;
22673;SDS011;11504;43.334;21.918;2023-04-16T15:07:12;7.0;;;7.0;;
22673;SDS011;11504;43.334;21.918;2023-04-16T15:11:49;7.0;;;7.0;;
22673;SDS011;11504;43.334;21.918;2023-04-16T15:16:25;8.0;;;7.0;;
22673;SDS011;11504;43.334;21.918;2023-04-16T15:21:02;8.0;;;7.0;;
22673;SDS011;11504;43.334;21.918;2023-04-16T15:25:38;8.0;;;7.0;;
22673;SDS011;11504;43.334;21.918;2023-04-16T15:30:15;8.0;;;7.0;;
22673;SDS011;11504;43.334;21.918;2023-04-16T15:34:52;8.0;;;7.0;;
22673;SDS011;11504;43.334;21.918;2023-04-16T15:39:30;8.0;;;7.0;;
22673;SDS011;11504;43.334;21.918;2023-04-16T15:44:06;7.0;;;7.0;;
22673;SDS011;11504;43.334;21.918;2023-04-16T15:48:43;7.0;;;7.0;;
22673;SDS011;11504;43.334;21.918;2023-04-16T15:53:19;7.0;;;7.0;;
22673;SDS011;11504;43.334;21.918;2023-04-16T15:57:57;8.0;;;7.0;;
22673;SDS011;11504;43.334;21.918;2023-04-16T16:02:33;8.0;;;7.0;;
22673;SDS011;11504;43.334;21.918;2023-04-16T16:07:10;8.0;;;7.0;;
22673;SDS011;11504;43.334;21.918;2023-04-16T16:11:47;8.0;;;7.0;;
22673;SDS011;11504;43.334;21.918;2023-04-16T16:16:23;8.0;;;7.0;;
22673;SDS011;11504;43.334;21.918;2023-04-16T16:21:01;8.0;;;7.0;;
22673;SDS011;11504;43.334;21.918;2023-04-16T16:25:38;8.0;;;7.0;;
22673;SDS011;11504;43.334;21.918;2023-04-16T16:30:15;8.0;;;7.0;;
22673;SDS011;11504;43.334;21.918;2023-04-16T16:34:52;8.0;;;8.0;;
22673;SDS011;11504;43.334;21.918;2023-04-16T16:39:29;8.0;;;8.0;;
22673;SDS011;11504;43.334;21.918;2023-04-16T16:44:07;9.0;;;9.0;;
22673;SDS011;11504;43.334;21.918;2023-04-16T16:48:44;9.0;;;9.0;;
22673;SDS011;11504;43.334;21.918;2023-04-16T16:53:20;9.0;;;9.0;;
22673;SDS011;11504;43.334;21.918;2023-04-16T16:57:57;9.0;;;8.0;;
22673;SDS011;11504;43.334;21.918;2023-04-16T17:02:34;9.0;;;8.0;;
22673;SDS011;11504;43.334;21.918;2023-04-16T17:07:11;9.0;;;8.0;;
22673;SDS011;11504;43.334;21.918;2023-04-16T17:11:53;9.0;;;8.0;;
22673;SDS011;11504;43.334;21.918;2023-04-16T17:16:30;10.0;;;9.0;;
22673;SDS011;11504;43.334;21.918;2023-04-16T17:21:07;10.0;;;9.0;;
22673;SDS011;11504;43.334;21.918;2023-04-16T17:25:43;11.0;;;10.0;;
22673;SDS011;11504;43.334;21.918;2023-04-16T17:30:20;11.0;;;10.0;;
22673;SDS011;11504;43.334;21.918;2023-04-16T17:34:57;11.0;;;10.0;;
22673;SDS011;11504;43.334;21.918;2023-04-16T17:39:39;11.0;;;10.0;;
22673;SDS011;11504;43.334;21.918;2023-04-16T17:44:15;11.0;;;10.0;;
22673;SDS011;11504;43.334;21.918;2023-04-16T17:48:52;11.0;;;10.0;;
22673;SDS011;11504;43.334;21.918;2023-04-16T17:53:28;10.0;;;10.0;;
22673;SDS011;11504;43.334;21.918;2023-04-16T17:58:05;10.0;;;10.0;;
22673;SDS011;11504;43.334;21.918;2023-04-16T18:02:41;10.0;;;10.0;;
22673;SDS011;11504;43.334;21.918;2023-04-16T18:07:17;9.0;;;9.0;;
22673;SDS011;11504;43.334;21.918;2023-04-16T18:11:53;9.0;;;9.0;;
22673;SDS011;11504;43.334;21.918;2023-04-16T18:16:29;10.0;;;10.0;;
22673;SDS011;11504;43.334;21.918;2023-04-16T18:21:06;10.0;;;10.0;;
22673;SDS011;11504;43.334;21.918;2023-04-16T18:25:43;11.0;;;11.0;;
22673;SDS011;11504;43.334;21.918;2023-04-16T18:30:19;11.0;;;11.0;;
22673;SDS011;11504;43.334;21.918;2023-04-16T18:34:56;10.0;;;10.0;;
22673;SDS011;11504;43.334;21.918;2023-04-16T18:39:32;10.0;;;10.0;;
22673;SDS011;11504;43.334;21.918;2023-04-16T18:44:09;9.0;;;8.0;;
22673;SDS011;11504;43.334;21.918;2023-04-16T18:48:45;9.0;;;8.0;;
22673;SDS011;11504;43.334;21.918;2023-04-16T18:53:23;9.0;;;8.0;;
22673;SDS011;11504;43.334;21.918;2023-04-16T18:58:00;8.0;;;8.0;;
22673;SDS011;11504;43.334;21.918;2023-04-16T19:02:37;8.0;;;8.0;;
22673;SDS011;11504;43.334;21.918;2023-04-16T19:07:15;8.0;;;7.0;;
22673;SDS011;11504;43.334;21.918;2023-04-16T19:11:52;8.0;;;7.0;;
22673;SDS011;11504;43.334;21.918;2023-04-16T19:16:29;8.0;;;8.0;;
22673;SDS011;11504;43.334;21.918;2023-04-16T19:21:06;8.0;;;8.0;;
22673;SDS011;11504;43.334;21.918;2023-04-16T19:25:43;8.0;;;8.0;;
22673;SDS011;11504;43.334;21.918;2023-04-16T19:30:19;8.0;;;8.0;;
22673;SDS011;11504;43.334;21.918;2023-04-16T19:34:56;9.0;;;9.0;;
22673;SDS011;11504;43.334;21.918;2023-04-16T19:39:33;9.0;;;9.0;;
22673;SDS011;11504;43.334;21.918;2023-04-16T19:44:09;10.0;;;10.0;;
22673;SDS011;11504;43.334;21.918;2023-04-16T19:48:46;10.0;;;10.0;;
22673;SDS011;11504;43.334;21.918;2023-04-16T19:53:22;10.0;;;10.0;;
22673;SDS011;11504;43.334;21.918;2023-04-16T19:57:59;10.0;;;9.0;;
22673;SDS011;11504;43.334;21.918;2023-04-16T20:02:35;10.0;;;9.0;;
22673;SDS011;11504;43.334;21.918;2023-04-16T20:07:12;9.0;;;8.0;;
22673;SDS011;11504;43.334;21.918;2023-04-16T20:11:48;9.0;;;8.0;;
22673;SDS011;11504;43.334;21.918;2023-04-16T20:16:25;9.0;;;8.0;;
22673;SDS011;11504;43.334;21.918;2023-04-16T20:21:02;9.0;;;8.0;;
22673;SDS011;11504;43.334;21.918;2023-04-16T20:25:39;9.0;;;9.0;;
22673;SDS011;11504;43.334;21.918;2023-04-16T20:30:17;9.0;;;9.0;;
22673;SDS011;11504;43.334;21.918;2023-04-16T20:34:54;10.0;;;10.0;;
22673;SDS011;11504;43.334;21.918;2023-04-16T20:39:30;10.0;;;10.0;;
22673;SDS011;11504;43.334;21.918;2023-04-16T20:44:06;10.0;;;10.0;;
22673;SDS011;11504;43.334;21.918;2023-04-16T20:48:43;10.0;;;10.0;;
22673;SDS011;11504;43.334;21.918;2023-04-16T20:53:19;10.0;;;10.0;;
22673;SDS011;11504;43.334;21.918;2023-04-16T20:57:55;12.0;;;12.0;;
22673;SDS011;11504;43.334;21.918;2023-04-16T21:02:31;12.0;;;12.0;;
22673;SDS011;11504;43.334;21.918;2023-04-16T21:07:08;14.0;;;14.0;;
22673;SDS011;11504;43.334;21.918;2023-04-16T21:11:44;14.0;;;14.0;;
22673;SDS011;11504;43.334;21.918;2023-04-16T21:16:21;13.0;;;12.0;;
22673;SDS011;11504;43.334;21.918;2023-04-16T21:20:57;13.0;;;12.0;;
22673;SDS011;11504;43.334;21.918;2023-04-16T21:25:34;12.0;;;11.0;;
22673;SDS011;11504;43.334;21.918;2023-04-16T21:30:11;12.0;;;11.0;;
22673;SDS011;11504;43.334;21.918;2023-04-16T21:34:51;10.0;;;10.0;;
22673;SDS011;11504;43.334;21.918;2023-04-16T21:39:27;10.0;;;10.0;;
22673;SDS011;11504;43.334;21.918;2023-04-16T21:44:04;9.0;;;8.0;;
22673;SDS011;11504;43.334;21.918;2023-04-16T21:48:41;9.0;;;8.0;;
22673;SDS011;11504;43.334;21.918;2023-04-16T21:53:17;9.0;;;8.0;;
22673;SDS011;11504;43.334;21.918;2023-04-16T21:57:54;8.0;;;8.0;;
22673;SDS011;11504;43.334;21.918;2023-04-16T22:02:30;8.0;;;8.0;;
22673;SDS011;11504;43.334;21.918;2023-04-16T22:07:07;8.0;;;7.0;;
22673;SDS011;11504;43.334;21.918;2023-04-16T22:11:45;8.0;;;7.0;;
22673;SDS011;11504;43.334;21.918;2023-04-16T22:16:21;8.0;;;8.0;;
22673;SDS011;11504;43.334;21.918;2023-04-16T22:20:59;8.0;;;8.0;;
22673;SDS011;11504;43.334;21.918;2023-04-16T22:25:36;9.0;;;8.0;;
22673;SDS011;11504;43.334;21.918;2023-04-16T22:30:13;9.0;;;8.0;;
22673;SDS011;11504;43.334;21.918;2023-04-16T22:34:50;10.0;;;8.0;;
22673;SDS011;11504;43.334;21.918;2023-04-16T22:39:27;10.0;;;8.0;;
22673;SDS011;11504;43.334;21.918;2023-04-16T22:44:05;10.0;;;9.0;;
22673;SDS011;11504;43.334;21.918;2023-04-16T22:48:41;10.0;;;9.0;;
22673;SDS011;11504;43.334;21.918;2023-04-16T22:53:17;10.0;;;9.0;;
22673;SDS011;11504;43.334;21.918;2023-04-16T22:57:54;10.0;;;8.0;;
22673;SDS011;11504;43.334;21.918;2023-04-16T23:02:30;10.0;;;8.0;;
22673;SDS011;11504;43.334;21.918;2023-04-16T23:07:07;9.0;;;8.0;;
22673;SDS011;11504;43.334;21.918;2023-04-16T23:11:43;9.0;;;8.0;;
22673;SDS011;11504;43.334;21.918;2023-04-16T23:16:20;9.0;;;8.0;;
22673;SDS011;11504;43.334;21.918;2023-04-16T23:20:56;9.0;;;8.0;;
22673;SDS011;11504;43.334;21.918;2023-04-16T23:25:32;9.0;;;9.0;;
22673;SDS011;11504;43.334;21.918;2023-04-16T23:30:09;9.0;;;9.0;;
22673;SDS011;11504;43.334;21.918;2023-04-16T23:34:47;8.0;;;8.0;;
22673;SDS011;11504;43.334;21.918;2023-04-16T23:39:24;8.0;;;8.0;;
22673;SDS011;11504;43.334;21.918;2023-04-16T23:44:00;8.0;;;8.0;;
22673;SDS011;11504;43.334;21.918;2023-04-16T23:48:36;8.0;;;8.0;;
22673;SDS011;11504;43.334;21.918;2023-04-16T23:53:13;8.0;;;8.0;;
22673;SDS011;11504;43.334;21.918;2023-04-16T23:57:50;8.0;;;8.0;;
